Yahata Maru — JL6477 — position and weather

sailwx.info

Track history (hours):
 
Tides and Currents Weather Stations Pressure Air Temp Water Temp Dewpoint Dewpoint Depression Visibility Wind Speed Wind Dir Waves Ship Positions

Yahata Maru

Last reported at 2017-Aug-20 13:30 UTC. Time now 2017-Aug-20 13:36 UTC.
Position N 35°28' E 139°43'.

Length 149 m; draft 4.7 m.

Type: Other ship. MMSI: 431400594.

Date/timePositionNaut miles runAvg speedWind from/ knotsBaromVisibWave heightAir tempDewpointWater temp
2017-Aug-20 13:30N 35°28' E 139°43'0 0.0
2017-Aug-20 13:00N 35°28' E 139°43'0 0.0
2017-Aug-20 12:30N 35°28' E 139°43'0 0.3
2017-Aug-20 12:00N 35°28' E 139°43'2 4.1
2017-Aug-20 11:30N 35°27' E 139°45'3 6.5
2017-Aug-20 11:00N 35°28' E 139°49'3 6.7
2017-Aug-20 10:30N 35°30' E 139°52'3 6.8
2017-Aug-20 09:59N 35°32' E 139°55'3 6.8
2017-Aug-20 09:29N 35°34' E 139°59'6 0.2
2017-Aug-19 06:24N 35°33' E 140°07'3 6.6
2017-Aug-19 06:01N 35°33' E 140°03'2 3.2
2017-Aug-19 05:30N 35°33' E 140°02'0 0.0
2017-Aug-19 04:23N 35°33' E 140°02'0 0.1
2017-Aug-19 03:59N 35°33' E 140°02'0 0.0
2017-Aug-19 03:29N 35°33' E 140°02'0 0.0
2017-Aug-19 02:59N 35°33' E 140°02'0 0.0
2017-Aug-19 02:29N 35°33' E 140°02'0 0.0
2017-Aug-19 01:59N 35°33' E 140°02'0 0.0
2017-Aug-19 01:29N 35°33' E 140°02'0 0.0
2017-Aug-19 00:59N 35°33' E 140°02'0 0.0
2017-Aug-19 00:29N 35°33' E 140°02'0 0.0
2017-Aug-18 23:59N 35°33' E 140°02'0 0.1
2017-Aug-18 23:23N 35°33' E 140°02'0 0.1
2017-Aug-18 22:59N 35°33' E 140°01'0 0.0
2017-Aug-18 22:23N 35°33' E 140°01'0 0.0
2017-Aug-18 21:38N 35°33' E 140°01'0 0.0
2017-Aug-18 21:29N 35°33' E 140°01'0 0.0
2017-Aug-18 20:59N 35°33' E 140°01'0 0.0
2017-Aug-18 20:29N 35°33' E 140°01'0 0.0
2017-Aug-18 19:59N 35°33' E 140°01'0 0.1
2017-Aug-18 19:29N 35°33' E 140°01'0 0.0
2017-Aug-18 18:50N 35°33' E 140°01'0 0.0
2017-Aug-18 12:47N 35°33' E 140°02'0 0.0
2017-Aug-18 11:59N 35°33' E 140°02'0 0.4
2017-Aug-18 11:31N 35°33' E 140°01'4 8.5
2017-Aug-18 11:00N 35°30' E 139°57'5 9.4
2017-Aug-18 10:30N 35°29' E 139°52'5 9.6
2017-Aug-18 10:00N 35°25' E 139°47'5 9.2
2017-Aug-18 09:30N 35°21' E 139°45'4 8.0
2017-Aug-18 09:00N 35°17' E 139°45'4 8.5
2017-Aug-18 08:30N 35°13' E 139°47'5 9.3
2017-Aug-18 08:00N 35°08' E 139°45'5 9.6
2017-Aug-18 07:30N 35°05' E 139°42'5 9.6
2017-Aug-18 07:00N 35°02' E 139°37'5 9.6
2017-Aug-18 06:30N 34°59' E 139°33'5 9.5
2017-Aug-18 06:00N 34°56' E 139°28'  
2017-Aug-14 14:39N 34°35' E 134°51'212.0
2017-Aug-14 14:30N 34°36' E 134°53'510.7
2017-Aug-14 14:00N 34°38' E 134°59'5 9.9
2017-Aug-14 13:30N 34°36' E 135°05'4 8.9
2017-Aug-14 13:00N 34°36' E 135°10'5 9.3
2017-Aug-14 12:30N 34°37' E 135°16'5 9.2
2017-Aug-14 12:00N 34°41' E 135°19'2 4.8
2017-Aug-14 11:29N 34°43' E 135°21'0 0.0
2017-Aug-14 10:56N 34°43' E 135°21'0 0.0
2017-Aug-14 10:20N 34°43' E 135°21'0 0.0
2017-Aug-14 09:56N 34°43' E 135°21'0 0.0
2017-Aug-14 09:26N 34°43' E 135°21'0 0.0
2017-Aug-14 08:50N 34°43' E 135°21'0 0.0
2017-Aug-14 08:26N 34°43' E 135°21'0 0.0
2017-Aug-14 07:56N 34°43' E 135°21'0 0.0
2017-Aug-14 07:26N 34°43' E 135°21'0 0.0
2017-Aug-14 06:56N 34°43' E 135°21'0 0.4
2017-Aug-14 06:30N 34°43' E 135°21'2 5.1
2017-Aug-14 06:00N 34°41' E 135°22'4 8.4
2017-Aug-14 05:30N 34°37' E 135°21'4 8.1
2017-Aug-14 05:00N 34°35' E 135°26'0 0.1
2017-Aug-14 04:30N 34°35' E 135°26'0 0.0
2017-Aug-14 04:00N 34°35' E 135°26'0 0.0
2017-Aug-14 03:30N 34°35' E 135°26'0 0.0
2017-Aug-14 03:00N 34°35' E 135°26'0 0.0
2017-Aug-14 02:30N 34°35' E 135°26'2 3.7
2017-Aug-14 02:00N 34°36' E 135°24'5 9.5
2017-Aug-14 01:29N 34°33' E 135°19'510.0
2017-Aug-14 01:00N 34°30' E 135°15'5 9.7
2017-Aug-14 00:29N 34°27' E 135°10'5 9.5
2017-Aug-14 00:00N 34°23' E 135°06'8 9.6
2017-Aug-13 23:11N 34°18' E 134°60'2 8.0
2017-Aug-13 22:59N 34°16' E 134°59'3 6.8
2017-Aug-13 22:30N 34°13' E 134°60'4 7.8
2017-Aug-13 22:01N 34°09' E 135°00'5 9.1
2017-Aug-13 21:30N 34°05' E 135°01'220 5.9
2017-Aug-12 08:05N 34°57' E 139°20'4 9.6
2017-Aug-12 07:43N 34°59' E 139°24'3 9.7
2017-Aug-12 07:25N 34°60' E 139°27'4 9.6
2017-Aug-12 07:00N 35°02' E 139°31'5 9.9
2017-Aug-12 06:30N 35°05' E 139°36'510.8
2017-Aug-12 06:00N 35°07' E 139°42'510.4
2017-Aug-12 05:30N 35°11' E 139°45'5 9.4
2017-Aug-12 05:01N 35°16' E 139°46'510.3
2017-Aug-12 04:31N 35°20' E 139°42'510.0
2017-Aug-12 04:01N 35°25' E 139°43'3 5.2
2017-Aug-12 03:31N 35°28' E 139°43'0 0.0
2017-Aug-12 02:59N 35°28' E 139°43'0 0.0
2017-Aug-12 02:29N 35°28' E 139°43'0 0.0
2017-Aug-12 01:59N 35°28' E 139°43'0 0.0
2017-Aug-12 01:29N 35°28' E 139°43'0 0.0
2017-Aug-12 00:59N 35°28' E 139°43'0 0.0
2017-Aug-12 00:30N 35°28' E 139°43'1 1.5
2017-Aug-12 00:00N 35°27' E 139°43'3 5.9
2017-Aug-11 23:30N 35°28' E 139°46'5 9.8
2017-Aug-11 23:00N 35°30' E 139°52'510.1
2017-Aug-11 22:30N 35°32' E 139°57'7 9.1
2017-Aug-11 21:47N 35°33' E 140°05'3 0.2
2017-Aug-11 08:15N 35°33' E 140°01'0 0.0
2017-Aug-11 07:42N 35°33' E 140°01'0 0.0
2017-Aug-11 07:27N 35°33' E 140°01'0 0.0
2017-Aug-11 03:33N 35°33' E 140°01'0 1.7
2017-Aug-11 03:29N 35°33' E 140°01'4 7.4
2017-Aug-11 03:00N 35°32' E 139°57'4 8.5
2017-Aug-11 02:30N 35°29' E 139°53'4 8.2
2017-Aug-11 02:00N 35°27' E 139°49'4 8.4
2017-Aug-11 01:30N 35°25' E 139°44'4 7.4
2017-Aug-11 01:00N 35°24' E 139°40'1 2.7
2017-Aug-11 00:30N 35°23' E 139°38'0 0.0
2017-Aug-10 23:58N 35°23' E 139°38'0 0.0
2017-Aug-10 23:28N 35°23' E 139°38'0 0.0
2017-Aug-10 22:58N 35°23' E 139°38'0 0.3
2017-Aug-10 22:31N 35°23' E 139°39'2 4.9
2017-Aug-10 22:01N 35°23' E 139°42'2 4.0
2017-Aug-10 21:27N 35°22' E 139°44'0 0.0
2017-Aug-10 21:00N 35°22' E 139°44'0 0.0
2017-Aug-10 20:30N 35°22' E 139°44'0 0.0
2017-Aug-10 20:00N 35°22' E 139°44'0 0.0
2017-Aug-10 19:27N 35°22' E 139°44'0 0.0
2017-Aug-10 19:00N 35°22' E 139°44'0 0.0
2017-Aug-10 18:30N 35°22' E 139°44'0 0.0
2017-Aug-10 18:00N 35°22' E 139°44'0 0.0
2017-Aug-10 17:30N 35°22' E 139°44'0 0.1
2017-Aug-10 17:00N 35°22' E 139°44'2 3.3
2017-Aug-10 16:30N 35°20' E 139°43'5 9.1
2017-Aug-10 16:00N 35°16' E 139°46'4 8.3
2017-Aug-10 15:30N 35°12' E 139°47'5 9.3
2017-Aug-10 15:00N 35°08' E 139°44'5 9.2
2017-Aug-10 14:30N 35°05' E 139°40'5 9.9
2017-Aug-10 14:00N 35°02' E 139°36'  
Track history (hours):
 
Tides and Currents Weather Stations Pressure Air Temp Water Temp Dewpoint Dewpoint Depression Visibility Wind Speed Wind Dir Waves Ship Positions

Yahata Maru

Last reported at 2017-Aug-20 13:30 UTC. Time now 2017-Aug-20 13:36 UTC.
Position N 35°28' E 139°43'.

Length 149 m; draft 4.7 m.

Type: Other ship. MMSI: 431400594.

Date/timePositionNaut miles runAvg speedWind from/ knotsBaromVisibWave heightAir tempDewpointWater temp
2017-Aug-20 13:30N 35°28' E 139°43'0 0.0
2017-Aug-20 13:00N 35°28' E 139°43'0 0.0
2017-Aug-20 12:30N 35°28' E 139°43'0 0.3
2017-Aug-20 12:00N 35°28' E 139°43'2 4.1
2017-Aug-20 11:30N 35°27' E 139°45'3 6.5
2017-Aug-20 11:00N 35°28' E 139°49'3 6.7
2017-Aug-20 10:30N 35°30' E 139°52'3 6.8
2017-Aug-20 09:59N 35°32' E 139°55'3 6.8
2017-Aug-20 09:29N 35°34' E 139°59'6 0.2
2017-Aug-19 06:24N 35°33' E 140°07'3 6.6
2017-Aug-19 06:01N 35°33' E 140°03'2 3.2
2017-Aug-19 05:30N 35°33' E 140°02'0 0.0
2017-Aug-19 04:23N 35°33' E 140°02'0 0.1
2017-Aug-19 03:59N 35°33' E 140°02'0 0.0
2017-Aug-19 03:29N 35°33' E 140°02'0 0.0
2017-Aug-19 02:59N 35°33' E 140°02'0 0.0
2017-Aug-19 02:29N 35°33' E 140°02'0 0.0
2017-Aug-19 01:59N 35°33' E 140°02'0 0.0
2017-Aug-19 01:29N 35°33' E 140°02'0 0.0
2017-Aug-19 00:59N 35°33' E 140°02'0 0.0
2017-Aug-19 00:29N 35°33' E 140°02'0 0.0
2017-Aug-18 23:59N 35°33' E 140°02'0 0.1
2017-Aug-18 23:23N 35°33' E 140°02'0 0.1
2017-Aug-18 22:59N 35°33' E 140°01'0 0.0
2017-Aug-18 22:23N 35°33' E 140°01'0 0.0
2017-Aug-18 21:38N 35°33' E 140°01'0 0.0
2017-Aug-18 21:29N 35°33' E 140°01'0 0.0
2017-Aug-18 20:59N 35°33' E 140°01'0 0.0
2017-Aug-18 20:29N 35°33' E 140°01'0 0.0
2017-Aug-18 19:59N 35°33' E 140°01'0 0.1
2017-Aug-18 19:29N 35°33' E 140°01'0 0.0
2017-Aug-18 18:50N 35°33' E 140°01'0 0.0
2017-Aug-18 12:47N 35°33' E 140°02'0 0.0
2017-Aug-18 11:59N 35°33' E 140°02'0 0.4
2017-Aug-18 11:31N 35°33' E 140°01'4 8.5
2017-Aug-18 11:00N 35°30' E 139°57'5 9.4
2017-Aug-18 10:30N 35°29' E 139°52'5 9.6
2017-Aug-18 10:00N 35°25' E 139°47'5 9.2
2017-Aug-18 09:30N 35°21' E 139°45'4 8.0
2017-Aug-18 09:00N 35°17' E 139°45'4 8.5
2017-Aug-18 08:30N 35°13' E 139°47'5 9.3
2017-Aug-18 08:00N 35°08' E 139°45'5 9.6
2017-Aug-18 07:30N 35°05' E 139°42'5 9.6
2017-Aug-18 07:00N 35°02' E 139°37'5 9.6
2017-Aug-18 06:30N 34°59' E 139°33'5 9.5
2017-Aug-18 06:00N 34°56' E 139°28'  
2017-Aug-14 14:39N 34°35' E 134°51'212.0
2017-Aug-14 14:30N 34°36' E 134°53'510.7
2017-Aug-14 14:00N 34°38' E 134°59'5 9.9
2017-Aug-14 13:30N 34°36' E 135°05'4 8.9
2017-Aug-14 13:00N 34°36' E 135°10'5 9.3
2017-Aug-14 12:30N 34°37' E 135°16'5 9.2
2017-Aug-14 12:00N 34°41' E 135°19'2 4.8
2017-Aug-14 11:29N 34°43' E 135°21'0 0.0
2017-Aug-14 10:56N 34°43' E 135°21'0 0.0
2017-Aug-14 10:20N 34°43' E 135°21'0 0.0
2017-Aug-14 09:56N 34°43' E 135°21'0 0.0
2017-Aug-14 09:26N 34°43' E 135°21'0 0.0
2017-Aug-14 08:50N 34°43' E 135°21'0 0.0
2017-Aug-14 08:26N 34°43' E 135°21'0 0.0
2017-Aug-14 07:56N 34°43' E 135°21'0 0.0
2017-Aug-14 07:26N 34°43' E 135°21'0 0.0
2017-Aug-14 06:56N 34°43' E 135°21'0 0.4
2017-Aug-14 06:30N 34°43' E 135°21'2 5.1
2017-Aug-14 06:00N 34°41' E 135°22'4 8.4
2017-Aug-14 05:30N 34°37' E 135°21'4 8.1
2017-Aug-14 05:00N 34°35' E 135°26'0 0.1
2017-Aug-14 04:30N 34°35' E 135°26'0 0.0
2017-Aug-14 04:00N 34°35' E 135°26'0 0.0
2017-Aug-14 03:30N 34°35' E 135°26'0 0.0
2017-Aug-14 03:00N 34°35' E 135°26'0 0.0
2017-Aug-14 02:30N 34°35' E 135°26'2 3.7
2017-Aug-14 02:00N 34°36' E 135°24'5 9.5
2017-Aug-14 01:29N 34°33' E 135°19'510.0
2017-Aug-14 01:00N 34°30' E 135°15'5 9.7
2017-Aug-14 00:29N 34°27' E 135°10'5 9.5
2017-Aug-14 00:00N 34°23' E 135°06'8 9.6
2017-Aug-13 23:11N 34°18' E 134°60'2 8.0
2017-Aug-13 22:59N 34°16' E 134°59'3 6.8
2017-Aug-13 22:30N 34°13' E 134°60'4 7.8
2017-Aug-13 22:01N 34°09' E 135°00'5 9.1
2017-Aug-13 21:30N 34°05' E 135°01'220 5.9
2017-Aug-12 08:05N 34°57' E 139°20'4 9.6
2017-Aug-12 07:43N 34°59' E 139°24'3 9.7
2017-Aug-12 07:25N 34°60' E 139°27'4 9.6
2017-Aug-12 07:00N 35°02' E 139°31'5 9.9
2017-Aug-12 06:30N 35°05' E 139°36'510.8
2017-Aug-12 06:00N 35°07' E 139°42'510.4
2017-Aug-12 05:30N 35°11' E 139°45'5 9.4
2017-Aug-12 05:01N 35°16' E 139°46'510.3
2017-Aug-12 04:31N 35°20' E 139°42'510.0
2017-Aug-12 04:01N 35°25' E 139°43'3 5.2
2017-Aug-12 03:31N 35°28' E 139°43'0 0.0
2017-Aug-12 02:59N 35°28' E 139°43'0 0.0
2017-Aug-12 02:29N 35°28' E 139°43'0 0.0
2017-Aug-12 01:59N 35°28' E 139°43'0 0.0
2017-Aug-12 01:29N 35°28' E 139°43'0 0.0
2017-Aug-12 00:59N 35°28' E 139°43'0 0.0
2017-Aug-12 00:30N 35°28' E 139°43'1 1.5
2017-Aug-12 00:00N 35°27' E 139°43'3 5.9
2017-Aug-11 23:30N 35°28' E 139°46'5 9.8
2017-Aug-11 23:00N 35°30' E 139°52'510.1
2017-Aug-11 22:30N 35°32' E 139°57'7 9.1
2017-Aug-11 21:47N 35°33' E 140°05'3 0.2
2017-Aug-11 08:15N 35°33' E 140°01'0 0.0
2017-Aug-11 07:42N 35°33' E 140°01'0 0.0
2017-Aug-11 07:27N 35°33' E 140°01'0 0.0
2017-Aug-11 03:33N 35°33' E 140°01'0 1.7
2017-Aug-11 03:29N 35°33' E 140°01'4 7.4
2017-Aug-11 03:00N 35°32' E 139°57'4 8.5
2017-Aug-11 02:30N 35°29' E 139°53'4 8.2
2017-Aug-11 02:00N 35°27' E 139°49'4 8.4
2017-Aug-11 01:30N 35°25' E 139°44'4 7.4
2017-Aug-11 01:00N 35°24' E 139°40'1 2.7
2017-Aug-11 00:30N 35°23' E 139°38'0 0.0
2017-Aug-10 23:58N 35°23' E 139°38'0 0.0
2017-Aug-10 23:28N 35°23' E 139°38'0 0.0
2017-Aug-10 22:58N 35°23' E 139°38'0 0.3
2017-Aug-10 22:31N 35°23' E 139°39'2 4.9
2017-Aug-10 22:01N 35°23' E 139°42'2 4.0
2017-Aug-10 21:27N 35°22' E 139°44'0 0.0
2017-Aug-10 21:00N 35°22' E 139°44'0 0.0
2017-Aug-10 20:30N 35°22' E 139°44'0 0.0
2017-Aug-10 20:00N 35°22' E 139°44'0 0.0
2017-Aug-10 19:27N 35°22' E 139°44'0 0.0
2017-Aug-10 19:00N 35°22' E 139°44'0 0.0
2017-Aug-10 18:30N 35°22' E 139°44'0 0.0
2017-Aug-10 18:00N 35°22' E 139°44'0 0.0
2017-Aug-10 17:30N 35°22' E 139°44'0 0.1
2017-Aug-10 17:00N 35°22' E 139°44'2 3.3
2017-Aug-10 16:30N 35°20' E 139°43'5 9.1
2017-Aug-10 16:00N 35°16' E 139°46'4 8.3
2017-Aug-10 15:30N 35°12' E 139°47'5 9.3
2017-Aug-10 15:00N 35°08' E 139°44'5 9.2
2017-Aug-10 14:30N 35°05' E 139°40'5 9.9
2017-Aug-10 14:00N 35°02' E 139°36'  

Dump ship's entire track history